createdAt,value
2022-10-13T00:00:05.435Z,15.88
2022-10-13T00:02:31.832Z,17.60
2022-10-13T00:04:58.184Z,16.50
2022-10-13T00:07:24.548Z,13.45
2022-10-13T00:09:50.918Z,15.45
2022-10-13T00:12:18.122Z,16.90
2022-10-13T00:14:44.623Z,17.45
2022-10-13T00:17:10.993Z,19.23
2022-10-13T00:19:37.403Z,20.52
2022-10-13T00:22:03.761Z,16.75
2022-10-13T00:24:30.276Z,17.23
2022-10-13T00:26:56.647Z,21.08
2022-10-13T00:29:23.016Z,18.52
2022-10-13T00:31:49.410Z,17.95
2022-10-13T00:34:15.772Z,18.10
2022-10-13T00:36:42.125Z,18.55
2022-10-13T00:39:08.537Z,17.67
2022-10-13T00:41:34.901Z,18.00
2022-10-13T00:44:06.718Z,19.92
2022-10-13T00:46:37.140Z,16.52
2022-10-13T00:49:08.757Z,18.35
2022-10-13T00:51:40.045Z,18.27
2022-10-13T00:54:07.252Z,16.60
2022-10-13T00:56:34.914Z,17.15
2022-10-13T00:59:01.547Z,17.45
2022-10-13T01:01:27.985Z,17.50
2022-10-13T01:03:54.361Z,18.05
2022-10-13T01:06:23.577Z,18.20
2022-10-13T01:08:50.842Z,20.90
2022-10-13T01:11:39.401Z,17.90
2022-10-13T01:14:35.413Z,20.05
2022-10-13T01:17:26.705Z,18.67
2022-10-13T01:20:00.823Z,17.25
2022-10-13T01:22:36.918Z,17.88
2022-10-13T01:25:11.533Z,18.38
2022-10-13T01:28:05.146Z,16.67
2022-10-13T01:30:45.601Z,19.20
2022-10-13T01:33:24.655Z,18.05
2022-10-13T01:36:16.637Z,17.15
2022-10-13T01:38:47.413Z,19.17
2022-10-13T01:41:18.793Z,17.35
2022-10-13T01:43:51.401Z,17.33
2022-10-13T01:46:22.617Z,25.05
2022-10-13T01:48:52.092Z,21.33
2022-10-13T01:51:19.348Z,17.95
2022-10-13T01:53:47.079Z,17.48
2022-10-13T01:56:13.741Z,20.48
2022-10-13T01:58:40.334Z,18.00
2022-10-13T02:01:15.210Z,17.83
2022-10-13T02:04:00.392Z,18.42
2022-10-13T02:06:35.201Z,21.02
2022-10-13T02:09:26.394Z,17.48
2022-10-13T02:12:02.062Z,14.80
2022-10-13T02:14:30.364Z,18.02
2022-10-13T02:17:00.326Z,17.30
2022-10-13T02:19:27.727Z,15.98
2022-10-13T02:21:54.405Z,21.02
2022-10-13T02:24:20.772Z,22.63
2022-10-13T02:26:47.476Z,16.98
2022-10-13T02:29:15.437Z,15.55
2022-10-13T02:31:42.340Z,18.27
2022-10-13T02:34:08.749Z,17.17
2022-10-13T02:36:37.718Z,20.90
2022-10-13T02:39:05.205Z,18.08
2022-10-13T02:41:31.637Z,18.65
2022-10-13T02:43:58.004Z,16.65
2022-10-13T02:46:24.427Z,17.38
2022-10-13T02:48:50.809Z,16.20
2022-10-13T02:51:17.185Z,17.10
2022-10-13T02:53:43.780Z,18.92
2022-10-13T02:56:10.313Z,17.88
2022-10-13T02:58:36.689Z,19.23
2022-10-13T03:01:07.996Z,17.40
2022-10-13T03:03:34.706Z,21.17
2022-10-13T03:06:01.145Z,18.20
2022-10-13T03:08:27.520Z,17.10
2022-10-13T03:10:53.952Z,17.08
2022-10-13T03:13:21.106Z,20.15
2022-10-13T03:15:47.610Z,17.65
2022-10-13T03:18:14.107Z,19.70
2022-10-13T03:20:40.637Z,18.38
2022-10-13T03:23:07.055Z,17.77
2022-10-13T03:25:34.251Z,20.02
2022-10-13T03:28:00.600Z,21.48
2022-10-13T03:30:27.056Z,20.88
2022-10-13T03:32:53.455Z,20.50
2022-10-13T03:35:19.846Z,20.08
2022-10-13T03:37:46.337Z,17.50
2022-10-13T03:40:12.797Z,20.20
2022-10-13T03:42:39.483Z,18.58
2022-10-13T03:45:06.277Z,19.27
2022-10-13T03:47:35.269Z,19.27
2022-10-13T03:50:01.793Z,17.63
2022-10-13T03:52:28.150Z,19.50
2022-10-13T03:54:54.505Z,16.00
2022-10-13T03:57:20.861Z,22.23
2022-10-13T03:59:47.280Z,20.52
2022-10-13T04:02:13.762Z,17.83
2022-10-13T04:04:40.269Z,19.52
2022-10-13T04:07:08.320Z,20.65
2022-10-13T04:09:34.974Z,15.68
2022-10-13T04:12:01.346Z,20.95
2022-10-13T04:14:27.721Z,20.95
2022-10-13T04:16:54.130Z,18.80
2022-10-13T04:19:20.498Z,20.73
2022-10-13T04:21:46.857Z,19.77
2022-10-13T04:24:13.590Z,17.90
2022-10-13T04:26:40.135Z,22.17
2022-10-13T04:29:08.608Z,18.88
2022-10-13T04:31:35.646Z,18.75
2022-10-13T04:34:02.005Z,19.50
2022-10-13T04:36:28.567Z,19.27
2022-10-13T04:38:55.416Z,19.17
2022-10-13T04:41:23.462Z,19.02
2022-10-13T04:43:50.891Z,23.17
2022-10-13T04:46:19.825Z,19.83
2022-10-13T04:48:46.527Z,22.50
2022-10-13T04:51:15.629Z,22.15
2022-10-13T04:53:42.131Z,21.90
2022-10-13T04:56:15.189Z,22.73
2022-10-13T04:58:42.943Z,21.58
2022-10-13T05:01:17.586Z,21.02
2022-10-13T05:03:46.846Z,20.45
2022-10-13T05:06:15.186Z,20.83
2022-10-13T05:08:41.738Z,20.17
2022-10-13T05:11:08.100Z,24.23
2022-10-13T05:13:34.502Z,20.13
2022-10-13T05:16:00.922Z,24.80
2022-10-13T05:18:27.285Z,20.52
2022-10-13T05:20:53.936Z,21.50
2022-10-13T05:23:20.313Z,20.48
2022-10-13T05:25:46.673Z,19.90
2022-10-13T05:28:13.271Z,22.55
2022-10-13T05:30:39.923Z,20.95
2022-10-13T05:33:06.289Z,22.08
2022-10-13T05:35:32.762Z,24.60
2022-10-13T05:37:59.172Z,21.58
2022-10-13T05:40:25.580Z,22.23
2022-10-13T05:42:52.426Z,21.45
2022-10-13T05:45:19.829Z,24.63
2022-10-13T05:47:46.219Z,23.38
2022-10-13T05:50:12.585Z,24.70
2022-10-13T05:52:39.265Z,24.58
2022-10-13T05:55:08.471Z,21.45
2022-10-13T05:57:37.393Z,27.17
2022-10-13T06:00:17.557Z,23.90
2022-10-13T06:02:55.732Z,26.98
2022-10-13T06:05:24.315Z,26.27
2022-10-13T06:07:50.802Z,23.58
2022-10-13T06:10:17.579Z,24.17
2022-10-13T06:12:44.106Z,28.38
2022-10-13T06:15:10.744Z,24.05
2022-10-13T06:17:38.298Z,24.10
2022-10-13T06:20:06.171Z,23.45
2022-10-13T06:22:36.449Z,25.88
2022-10-13T06:25:04.457Z,27.00
2022-10-13T06:27:31.191Z,26.25
2022-10-13T06:29:57.800Z,28.50
2022-10-13T06:32:24.166Z,25.00
2022-10-13T06:34:50.904Z,30.67
2022-10-13T06:37:17.370Z,28.15
2022-10-13T06:39:43.773Z,25.65
2022-10-13T06:42:10.205Z,27.10
2022-10-13T06:44:36.585Z,26.05
2022-10-13T06:47:04.056Z,27.55
2022-10-13T06:49:30.435Z,30.05
2022-10-13T06:51:56.856Z,28.58
2022-10-13T06:54:23.222Z,30.42
2022-10-13T06:56:49.753Z,32.38
2022-10-13T06:59:16.124Z,27.98
2022-10-13T07:01:42.524Z,29.00
2022-10-13T07:04:09.488Z,27.67
2022-10-13T07:06:35.987Z,23.50
2022-10-13T07:09:06.873Z,32.15
2022-10-13T07:11:33.478Z,25.35
2022-10-13T07:16:31.446Z,26.50
2022-10-13T07:19:05.326Z,27.77
2022-10-13T07:21:31.781Z,31.65
2022-10-13T07:23:58.194Z,31.85
2022-10-13T07:26:24.608Z,29.95
2022-10-13T07:28:51.063Z,31.77
2022-10-13T07:31:19.464Z,33.22
2022-10-13T07:33:48.083Z,27.05
2022-10-13T07:36:14.777Z,36.47
2022-10-13T07:38:41.374Z,35.25
2022-10-13T07:41:10.113Z,31.83
2022-10-13T07:43:36.477Z,34.45
2022-10-13T07:46:06.675Z,34.30
2022-10-13T07:48:33.499Z,35.72
2022-10-13T07:51:03.978Z,39.55
2022-10-13T07:53:30.382Z,40.30
2022-10-13T07:56:00.708Z,37.88
2022-10-13T07:58:27.755Z,36.90
2022-10-13T08:01:01.549Z,38.85
2022-10-13T08:03:28.781Z,35.20
2022-10-13T08:05:55.756Z,36.50
2022-10-13T08:08:22.156Z,38.53
2022-10-13T08:10:48.533Z,37.33
2022-10-13T08:13:14.978Z,37.83
2022-10-13T08:15:42.675Z,36.58
2022-10-13T08:18:10.247Z,40.67
2022-10-13T08:20:43.849Z,34.33
2022-10-13T08:23:11.274Z,39.28
2022-10-13T08:25:41.273Z,37.50
2022-10-13T08:28:17.154Z,36.90
2022-10-13T08:33:10.088Z,31.50
2022-10-13T08:35:36.486Z,36.78
2022-10-13T08:38:02.869Z,34.78
2022-10-13T08:40:29.306Z,38.20
2022-10-13T08:43:00.233Z,32.60
2022-10-13T08:45:40.935Z,32.63
2022-10-13T08:48:33.913Z,34.97
2022-10-13T08:51:03.820Z,33.72
2022-10-13T08:53:33.878Z,35.53
2022-10-13T08:56:15.627Z,35.75
2022-10-13T08:58:42.828Z,28.88
2022-10-13T09:01:09.140Z,30.75
2022-10-13T09:03:55.705Z,37.65
2022-10-13T09:06:28.714Z,30.25
2022-10-13T09:09:06.920Z,33.17
2022-10-13T09:11:38.949Z,27.65
2022-10-13T09:14:08.209Z,35.47
2022-10-13T09:16:43.212Z,33.35
2022-10-13T09:19:23.359Z,28.83
2022-10-13T09:22:42.232Z,31.70
2022-10-13T09:25:11.633Z,26.42
2022-10-13T09:27:52.961Z,28.30
2022-10-13T09:30:38.253Z,35.78
2022-10-13T09:33:04.519Z,29.20
2022-10-13T09:35:34.259Z,33.55
2022-10-13T09:40:32.143Z,31.20
2022-10-13T09:43:00.501Z,31.73
2022-10-13T09:45:27.860Z,31.65
2022-10-13T09:48:04.614Z,28.83
2022-10-13T09:50:31.925Z,28.58
2022-10-13T09:53:34.078Z,36.10
2022-10-13T09:56:19.608Z,22.75
2022-10-13T09:59:04.453Z,28.13
2022-10-13T10:01:35.023Z,26.08
2022-10-13T10:04:11.690Z,27.10
2022-10-13T10:06:38.945Z,28.27
2022-10-13T10:09:14.570Z,26.17
2022-10-13T10:11:43.460Z,28.52
2022-10-13T10:14:17.173Z,28.27
2022-10-13T10:16:47.952Z,24.52
2022-10-13T10:19:24.944Z,23.55
2022-10-13T10:22:33.460Z,24.55
2022-10-13T10:25:29.808Z,26.38
2022-10-13T10:28:17.225Z,24.85
2022-10-13T10:30:48.808Z,23.10
2022-10-13T10:33:22.000Z,21.90
2022-10-13T10:36:16.808Z,21.15
2022-10-13T10:38:48.268Z,23.42
2022-10-13T10:41:26.833Z,23.52
2022-10-13T10:43:57.099Z,24.67
2022-10-13T10:46:25.894Z,23.10
2022-10-13T10:48:55.210Z,23.75
2022-10-13T10:51:28.391Z,20.38
2022-10-13T10:53:57.772Z,18.52
2022-10-13T10:56:40.821Z,22.00
2022-10-13T10:59:13.227Z,23.27
2022-10-13T11:01:47.998Z,18.48
2022-10-13T11:04:39.479Z,19.38
2022-10-13T11:07:43.651Z,21.38
2022-10-13T11:10:10.037Z,22.45
2022-10-13T11:12:53.259Z,28.33
2022-10-13T11:15:25.561Z,22.50
2022-10-13T11:17:52.171Z,17.83
2022-10-13T11:20:21.633Z,21.55
2022-10-13T11:22:59.954Z,18.65
2022-10-13T11:25:39.872Z,18.70
2022-10-13T11:28:21.793Z,19.38
2022-10-13T11:30:55.367Z,19.27
2022-10-13T11:33:39.956Z,20.13
2022-10-13T11:36:28.540Z,16.92
2022-10-13T11:39:06.971Z,18.30
2022-10-13T11:41:52.585Z,17.63
2022-10-13T11:44:30.563Z,20.33
2022-10-13T11:47:15.904Z,16.40
2022-10-13T11:50:12.077Z,18.20
2022-10-13T11:53:07.371Z,19.48
2022-10-13T11:55:51.948Z,19.17
2022-10-13T11:58:30.038Z,18.35
2022-10-13T12:01:11.010Z,18.30
2022-10-13T12:03:45.475Z,17.63
2022-10-13T12:06:34.137Z,18.00
2022-10-13T12:09:03.041Z,20.38
2022-10-13T12:11:32.469Z,19.65
2022-10-13T12:14:00.559Z,20.67
2022-10-13T12:16:28.857Z,17.65
2022-10-13T12:19:07.462Z,22.50
2022-10-13T12:21:34.175Z,18.33
2022-10-13T12:24:09.481Z,21.00
2022-10-13T12:26:35.891Z,21.92
2022-10-13T12:29:03.247Z,21.85
2022-10-13T12:31:46.873Z,24.17
2022-10-13T12:34:35.806Z,19.70
2022-10-13T12:37:11.496Z,22.90
2022-10-13T12:39:38.349Z,24.98
2022-10-13T12:42:07.408Z,21.55
2022-10-13T12:44:34.181Z,23.73
2022-10-13T12:47:03.558Z,25.30
2022-10-13T12:49:32.124Z,22.80
2022-10-13T12:52:23.887Z,26.48
2022-10-13T12:54:52.745Z,26.52
2022-10-13T12:57:22.822Z,26.33
2022-10-13T12:59:49.396Z,24.75
2022-10-13T13:02:28.891Z,22.83
2022-10-13T13:04:56.041Z,23.63
2022-10-13T13:07:28.611Z,23.65
2022-10-13T13:10:08.138Z,24.90
2022-10-13T13:12:36.347Z,24.27
2022-10-13T13:15:30.797Z,23.35
2022-10-13T13:18:35.787Z,23.75
2022-10-13T13:21:04.571Z,27.08
2022-10-13T13:23:34.431Z,23.40
2022-10-13T13:26:15.073Z,22.45
2022-10-13T13:28:49.652Z,20.65
2022-10-13T13:31:35.057Z,18.77
2022-10-13T13:34:03.853Z,20.52
2022-10-13T13:36:31.116Z,19.45
2022-10-13T13:39:03.145Z,18.83
2022-10-13T13:41:31.245Z,18.75
2022-10-13T13:44:03.147Z,22.50
2022-10-13T13:46:32.347Z,20.42
2022-10-13T13:49:03.473Z,20.17
2022-10-13T13:51:30.045Z,18.15
2022-10-13T13:54:04.453Z,20.52
2022-10-13T13:56:30.958Z,20.83
2022-10-13T13:59:01.260Z,19.75
2022-10-13T14:01:32.787Z,21.27
2022-10-13T14:04:01.011Z,19.23
2022-10-13T14:06:29.480Z,21.95
2022-10-13T14:09:03.164Z,22.30
2022-10-13T14:11:54.219Z,19.55
2022-10-13T14:14:23.855Z,20.85
2022-10-13T14:17:19.873Z,19.65
2022-10-13T14:19:50.356Z,18.80
2022-10-13T14:22:16.826Z,20.90
2022-10-13T14:24:51.050Z,20.73
2022-10-13T14:27:24.146Z,18.88
2022-10-13T14:30:09.909Z,21.27
2022-10-13T14:32:39.762Z,21.63
2022-10-13T14:35:06.563Z,21.20
2022-10-13T14:37:40.389Z,20.65
2022-10-13T14:40:12.487Z,24.02
2022-10-13T14:42:39.564Z,19.30
2022-10-13T14:45:06.577Z,21.85
2022-10-13T14:47:33.072Z,23.02
2022-10-13T14:50:01.945Z,20.15
2022-10-13T14:52:28.446Z,20.27
2022-10-13T14:54:56.025Z,19.08
2022-10-13T14:57:23.069Z,17.95
2022-10-13T14:59:49.995Z,22.40
2022-10-13T15:02:16.906Z,21.83
2022-10-13T15:04:45.652Z,20.65
2022-10-13T15:07:12.247Z,19.52
2022-10-13T15:09:52.447Z,21.38
2022-10-13T15:12:22.553Z,22.00
2022-10-13T15:14:51.836Z,20.63
2022-10-13T15:17:18.260Z,21.23
2022-10-13T15:19:44.710Z,19.55
2022-10-13T15:22:15.262Z,19.05
2022-10-13T15:24:42.313Z,22.75
2022-10-13T15:27:09.853Z,18.40
2022-10-13T15:29:36.260Z,18.98
2022-10-13T15:32:11.549Z,18.63
2022-10-13T15:34:39.610Z,18.67
2022-10-13T15:37:06.543Z,15.15
2022-10-13T15:39:32.943Z,18.35
2022-10-13T15:41:59.369Z,14.23
2022-10-13T15:44:26.247Z,12.70
2022-10-13T15:47:07.364Z,12.80
2022-10-13T15:49:39.332Z,13.60
2022-10-13T15:52:05.790Z,14.73
2022-10-13T15:54:32.275Z,14.32
2022-10-13T15:56:58.657Z,13.20
2022-10-13T15:59:25.541Z,13.25
2022-10-13T16:01:51.948Z,10.90
2022-10-13T16:04:18.321Z,13.40
2022-10-13T16:06:44.777Z,12.25
2022-10-13T16:09:11.232Z,11.60
2022-10-13T16:11:37.632Z,12.18
2022-10-13T16:14:08.134Z,13.18
2022-10-13T16:16:34.664Z,14.05
2022-10-13T16:19:01.124Z,12.63
2022-10-13T16:21:27.703Z,13.27
2022-10-13T16:23:54.516Z,17.23
2022-10-13T16:26:21.383Z,15.23
2022-10-13T16:28:48.011Z,16.15
2022-10-13T16:31:16.502Z,14.07
2022-10-13T16:33:44.476Z,15.50
2022-10-13T16:36:13.253Z,15.18
2022-10-13T16:38:39.609Z,15.13
2022-10-13T16:41:12.070Z,13.43
2022-10-13T16:43:38.505Z,14.10
2022-10-13T16:46:06.877Z,18.77
2022-10-13T16:48:33.274Z,16.33
2022-10-13T16:51:09.348Z,17.02
2022-10-13T16:53:35.955Z,17.02
2022-10-13T16:56:04.733Z,16.90
2022-10-13T16:58:31.288Z,17.67
2022-10-13T17:01:08.904Z,18.83
2022-10-13T17:03:39.188Z,20.70
2022-10-13T17:06:06.882Z,17.02
2022-10-13T17:08:33.523Z,17.98
2022-10-13T17:11:00.445Z,18.90
2022-10-13T17:13:32.294Z,19.33
2022-10-13T17:15:59.993Z,24.10
2022-10-13T17:18:27.815Z,20.35
2022-10-13T17:20:56.184Z,24.95
2022-10-13T17:23:23.914Z,22.60
2022-10-13T17:25:52.449Z,22.98
2022-10-13T17:28:19.580Z,22.33
2022-10-13T17:30:56.528Z,18.83
2022-10-13T17:33:23.021Z,21.08
2022-10-13T17:35:49.531Z,18.42
2022-10-13T17:38:15.929Z,21.75
2022-10-13T17:40:42.459Z,18.33
2022-10-13T17:43:08.943Z,15.63
2022-10-13T17:45:35.333Z,15.77
2022-10-13T17:48:01.799Z,12.63
2022-10-13T17:50:29.209Z,14.88
2022-10-13T17:52:55.593Z,15.13
2022-10-13T17:55:21.989Z,17.38
2022-10-13T17:57:48.732Z,16.65
2022-10-13T18:00:15.935Z,16.10
2022-10-13T18:02:42.384Z,14.90
2022-10-13T18:05:09.015Z,17.33
2022-10-13T18:07:35.540Z,17.25
2022-10-13T18:10:05.416Z,19.52
2022-10-13T18:12:32.499Z,17.73
2022-10-13T18:14:58.999Z,20.50
2022-10-13T18:17:25.474Z,18.73
2022-10-13T18:19:53.156Z,17.58
2022-10-13T18:22:19.647Z,18.55
2022-10-13T18:24:46.295Z,17.55
2022-10-13T18:27:15.377Z,16.80
2022-10-13T18:29:42.604Z,20.38
2022-10-13T18:32:09.137Z,21.27
2022-10-13T18:34:36.143Z,23.95
2022-10-13T18:37:05.464Z,21.05
2022-10-13T18:39:34.286Z,19.02
2022-10-13T18:42:00.796Z,28.48
2022-10-13T18:44:27.462Z,25.10
2022-10-13T18:46:56.337Z,23.50
2022-10-13T18:49:30.580Z,26.35
2022-10-13T18:51:58.539Z,33.85
2022-10-13T18:54:25.420Z,29.90
2022-10-13T18:56:52.764Z,32.90
2022-10-13T18:59:19.562Z,35.22
2022-10-13T19:01:46.024Z,39.83
2022-10-13T19:04:14.659Z,36.97
2022-10-13T19:06:41.224Z,37.72
2022-10-13T19:09:10.270Z,36.95
2022-10-13T19:11:37.219Z,38.22
2022-10-13T19:14:05.739Z,38.42
2022-10-13T19:16:35.752Z,42.88
2022-10-13T19:19:02.226Z,50.65
2022-10-13T19:21:28.624Z,48.10
2022-10-13T19:23:58.593Z,40.15
2022-10-13T19:26:29.702Z,50.17
2022-10-13T19:29:01.773Z,46.92
2022-10-13T19:31:31.000Z,51.15
2022-10-13T19:33:58.186Z,55.30
2022-10-13T19:36:27.517Z,49.72
2022-10-13T19:38:54.559Z,58.78
2022-10-13T19:41:21.087Z,61.92
2022-10-13T19:43:47.541Z,53.28
2022-10-13T19:46:14.014Z,70.70
2022-10-13T19:48:40.454Z,73.28
2022-10-13T19:51:08.210Z,89.95
2022-10-13T19:53:35.681Z,86.68
2022-10-13T19:56:02.199Z,99.07
2022-10-13T19:58:28.972Z,114.10
2022-10-13T20:00:55.463Z,134.25
2022-10-13T20:03:21.852Z,125.18
2022-10-13T20:05:48.352Z,136.52
2022-10-13T20:08:14.974Z,96.22
2022-10-13T20:10:42.789Z,85.25
2022-10-13T20:13:10.247Z,160.10
2022-10-13T20:15:41.741Z,148.57
2022-10-13T20:18:09.472Z,278.05
2022-10-13T20:20:41.567Z,261.08
2022-10-13T20:23:08.887Z,280.27
2022-10-13T20:25:37.342Z,246.95
2022-10-13T20:28:04.231Z,208.73
2022-10-13T20:30:30.687Z,220.05
2022-10-13T20:32:57.482Z,185.50
2022-10-13T20:35:23.909Z,173.38
2022-10-13T20:37:50.268Z,134.10
2022-10-13T20:40:16.647Z,84.15
2022-10-13T20:42:43.018Z,149.13
2022-10-13T20:45:09.996Z,136.43
2022-10-13T20:47:36.363Z,128.75
2022-10-13T20:50:04.760Z,106.20
2022-10-13T20:52:31.118Z,136.27
2022-10-13T20:54:57.483Z,126.95
2022-10-13T20:57:24.643Z,132.48
2022-10-13T20:59:51.135Z,145.88
2022-10-13T21:02:17.681Z,121.78
2022-10-13T21:04:44.067Z,184.57
2022-10-13T21:07:10.529Z,159.88
2022-10-13T21:09:36.992Z,172.27
2022-10-13T21:12:03.683Z,109.80
2022-10-13T21:14:30.198Z,116.45
2022-10-13T21:16:56.606Z,124.93
2022-10-13T21:19:23.039Z,99.35
2022-10-13T21:21:49.457Z,108.40
2022-10-13T21:24:15.815Z,108.03
2022-10-13T21:26:42.181Z,80.63
2022-10-13T21:29:08.543Z,60.65
2022-10-13T21:31:35.380Z,72.63
2022-10-13T21:34:01.839Z,117.78
2022-10-13T21:36:30.187Z,56.50
2022-10-13T21:39:00.188Z,67.03
2022-10-13T21:41:27.159Z,120.60
2022-10-13T21:43:53.814Z,79.70
2022-10-13T21:46:28.196Z,52.80
2022-10-13T21:48:56.723Z,57.97
2022-10-13T21:51:34.875Z,92.38
2022-10-13T21:54:04.078Z,147.00
2022-10-13T21:56:32.369Z,73.07
2022-10-13T21:58:59.220Z,78.28
2022-10-13T22:01:25.923Z,47.33
2022-10-13T22:03:54.998Z,65.57
2022-10-13T22:06:21.575Z,47.10
2022-10-13T22:08:50.083Z,54.97
2022-10-13T22:11:17.943Z,65.00
2022-10-13T22:13:44.421Z,44.72
2022-10-13T22:16:22.296Z,64.38
2022-10-13T22:18:51.483Z,51.60
2022-10-13T22:21:20.538Z,46.35
2022-10-13T22:23:47.547Z,57.50
2022-10-13T22:26:15.252Z,65.75
2022-10-13T22:28:42.557Z,46.80
2022-10-13T22:31:11.612Z,47.20
2022-10-13T22:33:41.095Z,61.80
2022-10-13T22:36:08.825Z,56.00
2022-10-13T22:38:35.484Z,50.85
2022-10-13T22:41:05.965Z,37.90
2022-10-13T22:43:32.861Z,50.67
2022-10-13T22:45:59.445Z,44.67
2022-10-13T22:48:25.881Z,36.00
2022-10-13T22:50:52.252Z,40.90
2022-10-13T22:53:18.645Z,52.13
2022-10-13T22:55:45.166Z,46.33
2022-10-13T22:58:11.749Z,71.80
2022-10-13T23:00:38.801Z,149.80
2022-10-13T23:03:11.057Z,59.00
2022-10-13T23:05:42.487Z,69.15
2022-10-13T23:08:09.624Z,50.35
2022-10-13T23:10:36.753Z,70.95
2022-10-13T23:13:04.217Z,85.20
2022-10-13T23:15:30.646Z,185.05
2022-10-13T23:17:57.031Z,132.25
2022-10-13T23:20:23.629Z,40.67
2022-10-13T23:22:50.033Z,65.28
2022-10-13T23:25:16.409Z,37.33
2022-10-13T23:27:42.775Z,61.53
2022-10-13T23:30:09.676Z,52.42
2022-10-13T23:32:37.087Z,47.15
2022-10-13T23:35:03.528Z,56.83
2022-10-13T23:37:29.932Z,63.72
2022-10-13T23:39:56.295Z,55.38
2022-10-13T23:42:22.670Z,62.92
2022-10-13T23:44:49.030Z,103.57
2022-10-13T23:47:15.410Z,145.65
2022-10-13T23:49:41.858Z,54.35
2022-10-13T23:52:10.893Z,80.40
2022-10-13T23:54:37.644Z,61.80
2022-10-13T23:57:04.101Z,38.05
2022-10-13T23:59:30.460Z,51.00
